This is the latest recevied weather packets stored in our database for station/object KC0AFB. If no packets are shown the sender has not sent any weather packets the latest 1 day(s).
| Time | Temp. | Humidity | Pressure | Rain* | Wind** | Luminosity | Snow |
|---|---|---|---|---|---|---|---|
| 1778084262 | 5° C | 55% | 1018.1 hPa | 0 mm | - | 681 W/m² | - |
| 1778083353 | 4.44° C | 54% | 1018.1 hPa | 0 mm | - | 260 W/m² | - |
| 1778077075 | 2.78° C | 61% | 1018.6 hPa | 0 mm | - | 219 W/m² | - |
| 1778076773 | 2.22° C | 64% | 1018.7 hPa | 0 mm | - | 198 W/m² | - |
| 1778076167 | 1.67° C | 67% | 1018.3 hPa | 0 mm | - | 209 W/m² | - |
| 1778075864 | 1.67° C | 69% | 1018.3 hPa | 0 mm | - | 196 W/m² | - |
| 1778075560 | 1.11° C | 68% | 1018.7 hPa | 0 mm | - | 202 W/m² | - |
| 1778074651 | 0° C | 73% | 1018.5 hPa | 0 mm | - | 139 W/m² | - |
| 1778074347 | 0° C | 74% | 1018.7 hPa | 0 mm | - | 131 W/m² | - |
| 1778073135 | -0.56° C | 78% | 1018.6 hPa | 0 mm | - | 102 W/m² | - |
| 1778072832 | -0.56° C | 79% | 1018.6 hPa | 0 mm | - | 97 W/m² | - |
| 1778072529 | -1.11° C | 80% | 1018.7 hPa | 0 mm | - | 88 W/m² | - |
| 1778070716 | -1.67° C | 77% | 1018.1 hPa | 0 mm | - | 48 W/m² | - |
| 1778069202 | -2.22° C | 76% | 1018.1 hPa | 0 mm | - | 21 W/m² | - |
| 1778068898 | -2.22° C | 76% | 1017.9 hPa | 0 mm | - | 19 W/m² | - |
| 1778067992 | -2.22° C | 75% | 1018.1 hPa | 0 mm | - | 8 W/m² | - |
| 1778067690 | -2.22° C | 76% | 1017.7 hPa | 0 mm | - | 6 W/m² | - |
| 1778067085 | -2.78° C | 77% | 1017.8 hPa | 0 mm | - | 2 W/m² | - |
| 1778066479 | -2.78° C | 78% | 1018 hPa | 0 mm | - | 0 W/m² | - |
| 1778066176 | -3.33° C | 79% | 1017.9 hPa | 0 mm | - | 0 W/m² | - |
| 1778065874 | -3.33° C | 79% | 1017.5 hPa | 0 mm | - | 0 W/m² | - |
| 1778065571 | -3.33° C | 79% | 1017.8 hPa | 0 mm | - | 0 W/m² | - |
| 1778064662 | -3.33° C | 79% | 1017.7 hPa | 0 mm | - | 0 W/m² | - |
| 1778063754 | -3.33° C | 77% | 1017.5 hPa | 0 mm | - | 0 W/m² | - |
| 1778063451 | -3.33° C | 77% | 1017.6 hPa | 0 mm | - | 0 W/m² | - |
* Rain latest hour (hover to see other rain measurements)
** Current wind speed in m/s (hover to see current wind gust speed)